Latest Weather Observations for South Channel Island

IDV60801

Issued at 11:31 am EST Saturday 1 August 2015 (issued every 30 minutes, with the page automatically refreshed every 10 minutes)

About weather observations | Map of weather stations | Latest weather observations for VIC | Other Formats
Station Details ID: 086344 Name: SOUTH CHANNEL ISLAND Lat: -38.31 Lon: 144.80 Height: 9.0 m
Data from the previous 72 hours. | See also: Recent months for locations in Victoria
Date/Time
EST
Temp
°C
App
Temp
°C
Dew
Point
Rel
Hum
%
Delta-T
°C
Wind Press
QNH
hPa
Press
MSL
hPa
Rain
since 9 am
mm
Dir
 
Spd
km/h
Gust
km/h
Spd
kts
Gust
kts
01/11:30am - - - - - SW 39 46 21 25 - - -
01/11:00am - - - - - WSW 39 50 21 27 - - -
01/10:30am - - - - - SW 41 52 22 28 - - -
01/10:00am - - - - - WSW 41 50 22 27 - - -
01/09:30am - - - - - WSW 39 44 21 24 - - -
01/09:00am - - - - - SW 43 52 23 28 - - -
01/08:30am - - - - - SW 50 59 27 32 - - -
01/08:00am - - - - - SW 43 52 23 28 - - -
01/07:30am - - - - - WSW 48 57 26 31 - - -
01/07:27am - - - - - W 46 57 25 31 - - -
01/07:22am - - - - - WNW 43 57 23 31 - - -
01/07:08am - - - - - NW 37 48 20 26 - - -
01/07:00am - - - - - NNW 32 39 17 21 - - -
01/06:30am - - - - - N 46 54 25 29 - - -
01/06:00am - - - - - N 48 54 26 29 - - -
01/05:30am - - - - - N 50 59 27 32 - - -
01/05:00am - - - - - N 50 57 27 31 - - -
01/04:30am - - - - - N 54 65 29 35 - - -
01/04:00am - - - - - N 54 65 29 35 - - -
01/03:30am - - - - - N 52 59 28 32 - - -
01/03:00am - - - - - N 54 59 29 32 - - -
01/02:30am - - - - - N 56 63 30 34 - - -
01/02:00am - - - - - N 57 65 31 35 - - -
01/01:30am - - - - - N 57 65 31 35 - - -
01/01:00am - - - - - N 57 67 31 36 - - -
01/12:30am - - - - - N 52 59 28 32 - - -
01/12:00am - - - - - N 52 61 28 33 - - -
 
Date/Time
EST
Temp
°C
App
Temp
°C
Dew
Point
Rel
Hum
%
Delta-T
°C
Wind Press
QNH
hPa
Press
MSL
hPa
Rain
since 9 am
mm
Dir
 
Spd
km/h
Gust
km/h
Spd
kts
Gust
kts
31/11:30pm - - - - - N 50 57 27 31 - - -
31/11:00pm - - - - - N 50 57 27 31 - - -
31/10:30pm - - - - - N 41 50 22 27 - - -
31/10:00pm - - - - - N 32 33 17 18 - - -
31/09:30pm - - - - - NNW 28 32 15 17 - - -
31/09:00pm - - - - - NNW 26 32 14 17 - - -
31/08:30pm - - - - - N 39 44 21 24 - - -
31/08:00pm - - - - - N 39 46 21 25 - - -
31/07:30pm - - - - - N 35 41 19 22 - - -
31/07:00pm - - - - - N 28 33 15 18 - - -
31/06:30pm - - - - - N 11 15 6 8 - - -
31/06:00pm - - - - - NE 13 15 7 8 - - -
31/05:30pm - - - - - NNE 9 11 5 6 - - -
31/05:00pm - - - - - NNE 11 11 6 6 - - -
31/04:30pm - - - - - NNE 13 13 7 7 - - -
31/04:00pm - - - - - NNE 13 15 7 8 - - -
31/03:30pm - - - - - NNE 17 19 9 10 - - -
31/03:00pm - - - - - N 17 20 9 11 - - -
31/02:30pm - - - - - N 17 19 9 10 - - -
31/02:00pm - - - - - NNW 19 28 10 15 - - -
31/01:30pm - - - - - NNW 22 28 12 15 - - -
31/01:00pm - - - - - NW 24 30 13 16 - - -
31/12:30pm - - - - - NW 22 26 12 14 - - -
31/12:00pm - - - - - NW 24 28 13 15 - - -
31/11:30am - - - - - NW 24 28 13 15 - - -
31/11:00am - - - - - NW 26 30 14 16 - - -
31/10:30am - - - - - WNW 28 30 15 16 - - -
31/10:00am - - - - - WNW 28 32 15 17 - - -
31/09:30am - - - - - WNW 26 32 14 17 - - -
31/09:00am - - - - - WNW 32 35 17 19 - - -
31/08:30am - - - - - WNW 32 35 17 19 - - -
31/08:00am - - - - - WNW 26 30 14 16 - - -
31/07:30am - - - - - WNW 28 32 15 17 - - -
31/07:00am - - - - - WNW 30 32 16 17 - - -
31/06:30am - - - - - WNW 28 30 15 16 - - -
31/06:00am - - - - - WNW 26 30 14 16 - - -
31/05:30am - - - - - WNW 30 33 16 18 - - -
31/05:00am - - - - - WNW 30 32 16 17 - - -
31/04:30am - - - - - W 32 35 17 19 - - -
31/04:00am - - - - - W 30 33 16 18 - - -
31/03:30am - - - - - W 30 33 16 18 - - -
31/03:00am - - - - - W 32 35 17 19 - - -
31/02:30am - - - - - WNW 26 30 14 16 - - -
31/02:00am - - - - - W 32 35 17 19 - - -
31/01:30am - - - - - W 32 35 17 19 - - -
31/01:00am - - - - - WNW 37 43 20 23 - - -
31/12:30am - - - - - WNW 35 39 19 21 - - -
31/12:00am - - - - - WNW 37 43 20 23 - - -
 
Date/Time
EST
Temp
°C
App
Temp
°C
Dew
Point
Rel
Hum
%
Delta-T
°C
Wind Press
QNH
hPa
Press
MSL
hPa
Rain
since 9 am
mm
Dir
 
Spd
km/h
Gust
km/h
Spd
kts
Gust
kts
30/11:30pm - - - - - WNW 37 43 20 23 - - -
30/11:00pm - - - - - WNW 37 50 20 27 - - -
30/10:30pm - - - - - WNW 39 48 21 26 - - -
30/10:00pm - - - - - WNW 41 52 22 28 - - -
30/09:30pm - - - - - W 44 54 24 29 - - -
30/09:00pm - - - - - W 41 50 22 27 - - -
30/08:40pm - - - - - WNW 54 78 29 42 - - -
30/08:30pm - - - - - NW 48 59 26 32 - - -
30/08:00pm - - - - - NNW 50 63 27 34 - - -
30/07:30pm - - - - - NNW 52 59 28 32 - - -
30/07:00pm - - - - - NNW 52 69 28 37 - - -
30/06:30pm - - - - - N 44 56 24 30 - - -
30/06:00pm - - - - - N 37 44 20 24 - - -
30/05:30pm - - - - - N 46 56 25 30 - - -
30/05:00pm - - - - - N 57 70 31 38 - - -
30/04:30pm - - - - - N 57 70 31 38 - - -
30/04:00pm - - - - - N 50 59 27 32 - - -
30/03:30pm - - - - - N 54 63 29 34 - - -
30/03:00pm - - - - - N 56 67 30 36 - - -
30/02:30pm - - - - - N 52 59 28 32 - - -
30/02:00pm - - - - - N 59 70 32 38 - - -
30/01:30pm - - - - - N 57 72 31 39 - - -
30/01:00pm - - - - - N 61 74 33 40 - - -
30/12:30pm - - - - - N 59 72 32 39 - - -
30/12:25pm - - - - - N 59 78 32 42 - - -
30/12:00pm - - - - - N 61 74 33 40 - - -
30/11:32am - - - - - N 59 78 32 42 - - -
30/11:30am - - - - - N 59 70 32 38 - - -
30/11:00am - - - - - N 54 61 29 33 - - -
30/10:30am - - - - - N 52 63 28 34 - - -
30/10:00am - - - - - N 50 57 27 31 - - -
30/09:30am - - - - - N 54 61 29 33 - - -
30/09:00am - - - - - N 59 69 32 37 - - -
30/08:30am - - - - - N 56 65 30 35 - - -
30/08:00am - - - - - N 52 61 28 33 - - -
30/07:30am - - - - - N 44 59 24 32 - - -
30/07:00am - - - - - N 52 63 28 34 - - -
30/06:30am - - - - - N 48 57 26 31 - - -
30/06:00am - - - - - N 50 56 27 30 - - -
30/05:30am - - - - - N 48 56 26 30 - - -
30/05:00am - - - - - N 46 54 25 29 - - -
30/04:30am - - - - - N 44 50 24 27 - - -
30/04:00am - - - - - N 44 54 24 29 - - -
30/03:30am - - - - - N 43 52 23 28 - - -
30/03:00am - - - - - N 43 50 23 27 - - -
30/02:30am - - - - - N 41 48 22 26 - - -
30/02:00am - - - - - N 43 50 23 27 - - -
30/01:30am - - - - - N 41 50 22 27 - - -
30/01:00am - - - - - N 39 46 21 25 - - -
30/12:30am - - - - - N 39 44 21 24 - - -
30/12:00am - - - - - N 37 43 20 23 - - -
 
Date/Time
EST
Temp
°C
App
Temp
°C
Dew
Point
Rel
Hum
%
Delta-T
°C
Wind Press
QNH
hPa
Press
MSL
hPa
Rain
since 9 am
mm
Dir
 
Spd
km/h
Gust
km/h
Spd
kts
Gust
kts
29/11:30pm - - - - - N 37 43 20 23 - - -
29/11:00pm - - - - - N 39 44 21 24 - - -
29/10:30pm - - - - - N 35 41 19 22 - - -
29/10:00pm - - - - - N 35 39 19 21 - - -
29/09:30pm - - - - - N 35 41 19 22 - - -
29/09:00pm - - - - - N 33 41 18 22 - - -
29/08:30pm - - - - - N 32 37 17 20 - - -
29/08:00pm - - - - - N 33 37 18 20 - - -
29/07:30pm - - - - - N 35 41 19 22 - - -
29/07:00pm - - - - - N 32 37 17 20 - - -
29/06:30pm - - - - - N 24 32 13 17 - - -
29/06:00pm - - - - - N 17 19 9 10 - - -
29/05:30pm - - - - - N 13 15 7 8 - - -
29/05:00pm - - - - - N 13 17 7 9 - - -
29/04:30pm - - - - - NNE 19 26 10 14 - - -
29/04:00pm - - - - - N 11 13 6 7 - - -
29/03:30pm - - - - - NNW 15 17 8 9 - - -
29/03:00pm - - - - - NNW 17 22 9 12 - - -
29/02:30pm - - - - - NNW 17 19 9 10 - - -
29/02:00pm - - - - - NNW 19 22 10 12 - - -
29/01:30pm - - - - - N 19 22 10 12 - - -
29/01:00pm - - - - - N 19 20 10 11 - - -
29/12:30pm - - - - - N 19 20 10 11 - - -
29/12:00pm - - - - - N 22 24 12 13 - - -

Other Formats:

Comma delimited format used in spreadsheet applications
http://www.bom.gov.au/fwo/IDV60801/IDV60801.94853.axf

JavaScript Object Notation format (JSON) in row-major order
http://www.bom.gov.au/fwo/IDV60801/IDV60801.94853.json